Airport View

Enter AWOS ICAO identifier for current METAR.

ex. KFNL

KFYG 212315Z AUTO 18011KT 10SM CLR 28/22 A3002 RMK AO2

21 Sep 2019 23:26

Frequency: 121.325

Phone: 636-433-5914

Other Area AWOS: KSUS - KSTL - KSET - KCPS

TAF KSUS 211737Z 2118/2218 19012G21KT P6SM VCTS BKN070CB FM220100 18011KT P6SM BKN120 FM221600 20011G17KT P6SM VCTS SCT040CB BKN090